sensor_id;sensor_type;location;lat;lon;timestamp;pressure;altitude;pressure_sealevel;temperature
71564;BMP180;59391;52.504;13.438;2023-06-22T00:02:01;101481.00;;;27.10
71564;BMP180;59391;52.504;13.438;2023-06-22T00:04:30;101498.00;;;27.10
71564;BMP180;59391;52.504;13.438;2023-06-22T00:07:25;101548.00;;;27.00
71564;BMP180;59391;52.504;13.438;2023-06-22T00:09:53;101512.00;;;26.80
71564;BMP180;59391;52.504;13.438;2023-06-22T00:12:19;101505.00;;;27.00
71564;BMP180;59391;52.504;13.438;2023-06-22T00:14:44;101504.00;;;26.90
71564;BMP180;59391;52.504;13.438;2023-06-22T00:17:10;101481.00;;;26.90
71564;BMP180;59391;52.504;13.438;2023-06-22T00:19:41;101540.00;;;26.90
71564;BMP180;59391;52.504;13.438;2023-06-22T00:22:14;101481.00;;;26.70
71564;BMP180;59391;52.504;13.438;2023-06-22T00:24:55;101528.00;;;26.80
71564;BMP180;59391;52.504;13.438;2023-06-22T00:27:24;101515.00;;;26.80
71564;BMP180;59391;52.504;13.438;2023-06-22T00:29:53;101481.00;;;26.70
71564;BMP180;59391;52.504;13.438;2023-06-22T00:32:18;101487.00;;;26.70
71564;BMP180;59391;52.504;13.438;2023-06-22T00:34:57;101501.00;;;26.70
71564;BMP180;59391;52.504;13.438;2023-06-22T00:37:25;101507.00;;;26.70
71564;BMP180;59391;52.504;13.438;2023-06-22T00:39:59;101558.00;;;26.60
71564;BMP180;59391;52.504;13.438;2023-06-22T00:42:32;101485.00;;;26.60
71564;BMP180;59391;52.504;13.438;2023-06-22T00:45:01;101558.00;;;26.60
71564;BMP180;59391;52.504;13.438;2023-06-22T00:47:35;101533.00;;;26.60
71564;BMP180;59391;52.504;13.438;2023-06-22T00:50:07;101509.00;;;26.50
71564;BMP180;59391;52.504;13.438;2023-06-22T00:52:35;101515.00;;;26.40
71564;BMP180;59391;52.504;13.438;2023-06-22T00:55:02;101495.00;;;26.40
71564;BMP180;59391;52.504;13.438;2023-06-22T00:57:28;101510.00;;;26.50
71564;BMP180;59391;52.504;13.438;2023-06-22T00:59:57;101485.00;;;26.30
71564;BMP180;59391;52.504;13.438;2023-06-22T01:02:23;101555.00;;;26.40
71564;BMP180;59391;52.504;13.438;2023-06-22T01:04:48;101520.00;;;26.40
71564;BMP180;59391;52.504;13.438;2023-06-22T01:07:35;101562.00;;;26.30
71564;BMP180;59391;52.504;13.438;2023-06-22T01:10:12;101547.00;;;26.30
71564;BMP180;59391;52.504;13.438;2023-06-22T01:12:47;101559.00;;;26.30
71564;BMP180;59391;52.504;13.438;2023-06-22T01:15:28;101561.00;;;26.20
71564;BMP180;59391;52.504;13.438;2023-06-22T01:17:57;101566.00;;;26.20
71564;BMP180;59391;52.504;13.438;2023-06-22T01:20:26;101572.00;;;26.20
71564;BMP180;59391;52.504;13.438;2023-06-22T01:23:46;101567.00;;;26.10
71564;BMP180;59391;52.504;13.438;2023-06-22T01:26:47;101565.00;;;26.10
71564;BMP180;59391;52.504;13.438;2023-06-22T01:29:16;101556.00;;;26.10
71564;BMP180;59391;52.504;13.438;2023-06-22T01:31:44;101571.00;;;26.00
71564;BMP180;59391;52.504;13.438;2023-06-22T01:34:12;101572.00;;;26.00
71564;BMP180;59391;52.504;13.438;2023-06-22T01:36:39;101569.00;;;26.00
71564;BMP180;59391;52.504;13.438;2023-06-22T01:39:06;101570.00;;;26.00
71564;BMP180;59391;52.504;13.438;2023-06-22T01:41:38;101565.00;;;25.90
71564;BMP180;59391;52.504;13.438;2023-06-22T01:44:06;101587.00;;;25.90
71564;BMP180;59391;52.504;13.438;2023-06-22T01:46:34;101571.00;;;25.90
71564;BMP180;59391;52.504;13.438;2023-06-22T01:49:04;101569.00;;;25.90
71564;BMP180;59391;52.504;13.438;2023-06-22T01:51:31;101591.00;;;25.90
71564;BMP180;59391;52.504;13.438;2023-06-22T01:53:56;101578.00;;;25.80
71564;BMP180;59391;52.504;13.438;2023-06-22T01:56:22;101585.00;;;25.80
71564;BMP180;59391;52.504;13.438;2023-06-22T02:01:54;101576.00;;;25.80
71564;BMP180;59391;52.504;13.438;2023-06-22T02:04:46;101588.00;;;25.70
71564;BMP180;59391;52.504;13.438;2023-06-22T02:07:17;101580.00;;;25.50
71564;BMP180;59391;52.504;13.438;2023-06-22T02:09:46;101532.00;;;25.70
71564;BMP180;59391;52.504;13.438;2023-06-22T02:12:21;101535.00;;;25.70
71564;BMP180;59391;52.504;13.438;2023-06-22T02:14:51;101613.00;;;25.70
71564;BMP180;59391;52.504;13.438;2023-06-22T02:17:20;101533.00;;;25.70
71564;BMP180;59391;52.504;13.438;2023-06-22T02:19:49;101599.00;;;25.70
71564;BMP180;59391;52.504;13.438;2023-06-22T02:22:14;101528.00;;;25.70
71564;BMP180;59391;52.504;13.438;2023-06-22T02:24:40;101567.00;;;25.60
71564;BMP180;59391;52.504;13.438;2023-06-22T02:27:06;101530.00;;;25.70
71564;BMP180;59391;52.504;13.438;2023-06-22T02:29:36;101596.00;;;25.70
71564;BMP180;59391;52.504;13.438;2023-06-22T02:32:05;101623.00;;;25.70
71564;BMP180;59391;52.504;13.438;2023-06-22T02:34:33;101527.00;;;25.70
71564;BMP180;59391;52.504;13.438;2023-06-22T02:36:59;101541.00;;;25.70
71564;BMP180;59391;52.504;13.438;2023-06-22T02:39:29;101557.00;;;25.70
71564;BMP180;59391;52.504;13.438;2023-06-22T02:41:57;101573.00;;;25.70
71564;BMP180;59391;52.504;13.438;2023-06-22T02:44:26;101616.00;;;25.50
71564;BMP180;59391;52.504;13.438;2023-06-22T02:46:51;101552.00;;;25.70
71564;BMP180;59391;52.504;13.438;2023-06-22T02:49:17;101571.00;;;25.70
71564;BMP180;59391;52.504;13.438;2023-06-22T02:51:47;101537.00;;;25.70
71564;BMP180;59391;52.504;13.438;2023-06-22T02:54:13;101550.00;;;25.70
71564;BMP180;59391;52.504;13.438;2023-06-22T02:56:39;101550.00;;;25.70
71564;BMP180;59391;52.504;13.438;2023-06-22T02:59:12;101536.00;;;25.70
71564;BMP180;59391;52.504;13.438;2023-06-22T03:01:41;101582.00;;;25.60
71564;BMP180;59391;52.504;13.438;2023-06-22T03:04:08;101564.00;;;25.70
71564;BMP180;59391;52.504;13.438;2023-06-22T03:06:37;101550.00;;;25.50
71564;BMP180;59391;52.504;13.438;2023-06-22T03:09:09;101594.00;;;25.50
71564;BMP180;59391;52.504;13.438;2023-06-22T03:11:37;101555.00;;;25.70
71564;BMP180;59391;52.504;13.438;2023-06-22T03:14:03;101529.00;;;25.50
71564;BMP180;59391;52.504;13.438;2023-06-22T03:16:29;101597.00;;;25.70
71564;BMP180;59391;52.504;13.438;2023-06-22T03:18:57;101547.00;;;25.60
71564;BMP180;59391;52.504;13.438;2023-06-22T03:21:23;101581.00;;;25.60
71564;BMP180;59391;52.504;13.438;2023-06-22T03:23:49;101597.00;;;25.50
71564;BMP180;59391;52.504;13.438;2023-06-22T03:26:21;101526.00;;;25.60
71564;BMP180;59391;52.504;13.438;2023-06-22T03:28:49;101563.00;;;25.60
71564;BMP180;59391;52.504;13.438;2023-06-22T03:31:29;101602.00;;;25.40
71564;BMP180;59391;52.504;13.438;2023-06-22T03:34:02;101584.00;;;25.60
71564;BMP180;59391;52.504;13.438;2023-06-22T03:36:28;101555.00;;;25.60
71564;BMP180;59391;52.504;13.438;2023-06-22T03:38:54;101602.00;;;25.60
71564;BMP180;59391;52.504;13.438;2023-06-22T03:41:19;101595.00;;;25.60
71564;BMP180;59391;52.504;13.438;2023-06-22T03:43:50;101571.00;;;25.50
71564;BMP180;59391;52.504;13.438;2023-06-22T03:46:16;101554.00;;;25.70
71564;BMP180;59391;52.504;13.438;2023-06-22T03:48:42;101568.00;;;25.70
71564;BMP180;59391;52.504;13.438;2023-06-22T03:51:10;101592.00;;;25.70
71564;BMP180;59391;52.504;13.438;2023-06-22T03:53:36;101542.00;;;25.70
71564;BMP180;59391;52.504;13.438;2023-06-22T03:56:05;101555.00;;;25.70
71564;BMP180;59391;52.504;13.438;2023-06-22T03:58:31;101552.00;;;25.70
71564;BMP180;59391;52.504;13.438;2023-06-22T04:01:04;101555.00;;;25.50
71564;BMP180;59391;52.504;13.438;2023-06-22T04:03:29;101579.00;;;25.70
71564;BMP180;59391;52.504;13.438;2023-06-22T04:05:55;101583.00;;;25.70
71564;BMP180;59391;52.504;13.438;2023-06-22T04:08:21;101597.00;;;25.70
71564;BMP180;59391;52.504;13.438;2023-06-22T04:10:46;101617.00;;;25.70
71564;BMP180;59391;52.504;13.438;2023-06-22T04:13:14;101553.00;;;25.70
71564;BMP180;59391;52.504;13.438;2023-06-22T04:15:40;101615.00;;;25.70
71564;BMP180;59391;52.504;13.438;2023-06-22T04:18:06;101601.00;;;25.70
71564;BMP180;59391;52.504;13.438;2023-06-22T04:20:32;101573.00;;;25.70
71564;BMP180;59391;52.504;13.438;2023-06-22T04:22:58;101584.00;;;25.70
71564;BMP180;59391;52.504;13.438;2023-06-22T04:25:23;101588.00;;;25.70
71564;BMP180;59391;52.504;13.438;2023-06-22T04:27:49;101626.00;;;25.70
71564;BMP180;59391;52.504;13.438;2023-06-22T04:30:15;101620.00;;;25.60
71564;BMP180;59391;52.504;13.438;2023-06-22T04:32:44;101623.00;;;25.60
71564;BMP180;59391;52.504;13.438;2023-06-22T04:35:11;101619.00;;;25.60
71564;BMP180;59391;52.504;13.438;2023-06-22T04:37:37;101627.00;;;25.60
71564;BMP180;59391;52.504;13.438;2023-06-22T04:40:05;101625.00;;;25.60
71564;BMP180;59391;52.504;13.438;2023-06-22T04:42:35;101620.00;;;25.60
71564;BMP180;59391;52.504;13.438;2023-06-22T04:45:02;101632.00;;;25.60
71564;BMP180;59391;52.504;13.438;2023-06-22T04:47:28;101629.00;;;25.60
71564;BMP180;59391;52.504;13.438;2023-06-22T04:49:54;101612.00;;;25.60
71564;BMP180;59391;52.504;13.438;2023-06-22T04:52:19;101632.00;;;25.60
71564;BMP180;59391;52.504;13.438;2023-06-22T04:54:45;101624.00;;;25.70
71564;BMP180;59391;52.504;13.438;2023-06-22T04:57:20;101640.00;;;25.70
71564;BMP180;59391;52.504;13.438;2023-06-22T04:59:49;101621.00;;;25.70
71564;BMP180;59391;52.504;13.438;2023-06-22T05:02:17;101632.00;;;25.70
71564;BMP180;59391;52.504;13.438;2023-06-22T05:04:43;101644.00;;;25.80
71564;BMP180;59391;52.504;13.438;2023-06-22T05:07:09;101634.00;;;25.90
71564;BMP180;59391;52.504;13.438;2023-06-22T05:13:01;101630.00;;;25.70
71564;BMP180;59391;52.504;13.438;2023-06-22T05:16:21;101630.00;;;26.00
71564;BMP180;59391;52.504;13.438;2023-06-22T05:20:01;101636.00;;;26.00
71564;BMP180;59391;52.504;13.438;2023-06-22T05:26:30;101584.00;;;26.10
71564;BMP180;59391;52.504;13.438;2023-06-22T05:29:49;101639.00;;;26.10
71564;BMP180;59391;52.504;13.438;2023-06-22T05:32:28;101617.00;;;26.00
71564;BMP180;59391;52.504;13.438;2023-06-22T05:35:02;101640.00;;;26.20
71564;BMP180;59391;52.504;13.438;2023-06-22T05:37:51;101587.00;;;26.30
71564;BMP180;59391;52.504;13.438;2023-06-22T05:40:17;101628.00;;;26.30
71564;BMP180;59391;52.504;13.438;2023-06-22T05:42:42;101587.00;;;26.40
71564;BMP180;59391;52.504;13.438;2023-06-22T06:08:24;101622.00;;;26.50
71564;BMP180;59391;52.504;13.438;2023-06-22T06:10:49;101622.00;;;26.60
71564;BMP180;59391;52.504;13.438;2023-06-22T06:13:15;101605.00;;;26.60
71564;BMP180;59391;52.504;13.438;2023-06-22T06:19:08;101656.00;;;26.80
71564;BMP180;59391;52.504;13.438;2023-06-22T06:21:33;101585.00;;;26.90
71564;BMP180;59391;52.504;13.438;2023-06-22T06:23:59;101615.00;;;26.90
71564;BMP180;59391;52.504;13.438;2023-06-22T06:26:54;101651.00;;;27.00
71564;BMP180;59391;52.504;13.438;2023-06-22T06:32:21;101601.00;;;27.10
71564;BMP180;59391;52.504;13.438;2023-06-22T06:35:00;101595.00;;;27.10
71564;BMP180;59391;52.504;13.438;2023-06-22T06:38:00;101632.00;;;27.10
71564;BMP180;59391;52.504;13.438;2023-06-22T06:40:51;101662.00;;;27.10
71564;BMP180;59391;52.504;13.438;2023-06-22T06:43:16;101663.00;;;27.20
71564;BMP180;59391;52.504;13.438;2023-06-22T06:45:42;101628.00;;;27.30
71564;BMP180;59391;52.504;13.438;2023-06-22T06:48:08;101616.00;;;27.10
71564;BMP180;59391;52.504;13.438;2023-06-22T06:50:43;101690.00;;;27.30
71564;BMP180;59391;52.504;13.438;2023-06-22T06:53:10;101656.00;;;27.40
71564;BMP180;59391;52.504;13.438;2023-06-22T06:55:35;101647.00;;;27.40
71564;BMP180;59391;52.504;13.438;2023-06-22T06:58:04;101659.00;;;27.50
71564;BMP180;59391;52.504;13.438;2023-06-22T07:00:33;101646.00;;;27.50
71564;BMP180;59391;52.504;13.438;2023-06-22T07:02:58;101648.00;;;27.60
71564;BMP180;59391;52.504;13.438;2023-06-22T07:05:24;101637.00;;;27.70
71564;BMP180;59391;52.504;13.438;2023-06-22T07:07:50;101640.00;;;27.70
71564;BMP180;59391;52.504;13.438;2023-06-22T07:10:24;101628.00;;;27.80
71564;BMP180;59391;52.504;13.438;2023-06-22T07:21:29;101624.00;;;27.90
71564;BMP180;59391;52.504;13.438;2023-06-22T07:24:54;101640.00;;;28.00
71564;BMP180;59391;52.504;13.438;2023-06-22T07:28:13;101622.00;;;28.10
71564;BMP180;59391;52.504;13.438;2023-06-22T08:11:14;101570.00;;;29.70
71564;BMP180;59391;52.504;13.438;2023-06-22T08:14:55;101615.00;;;29.50
71564;BMP180;59391;52.504;13.438;2023-06-22T08:28:22;101580.00;;;29.80
71564;BMP180;59391;52.504;13.438;2023-06-22T08:38:51;101617.00;;;30.10
71564;BMP180;59391;52.504;13.438;2023-06-22T08:41:50;101553.00;;;30.10
71564;BMP180;59391;52.504;13.438;2023-06-22T08:45:06;101632.00;;;30.20
71564;BMP180;59391;52.504;13.438;2023-06-22T08:47:41;101634.00;;;30.30
71564;BMP180;59391;52.504;13.438;2023-06-22T08:50:11;101633.00;;;30.30
71564;BMP180;59391;52.504;13.438;2023-06-22T08:52:38;101622.00;;;30.30
71564;BMP180;59391;52.504;13.438;2023-06-22T08:55:20;101594.00;;;30.30
71564;BMP180;59391;52.504;13.438;2023-06-22T08:58:10;101545.00;;;30.30
71564;BMP180;59391;52.504;13.438;2023-06-22T09:00:36;101566.00;;;30.40
71564;BMP180;59391;52.504;13.438;2023-06-22T09:03:02;101571.00;;;30.50
71564;BMP180;59391;52.504;13.438;2023-06-22T09:05:29;101550.00;;;30.60
71564;BMP180;59391;52.504;13.438;2023-06-22T09:07:57;101624.00;;;31.20
71564;BMP180;59391;52.504;13.438;2023-06-22T09:10:37;101567.00;;;31.40
71564;BMP180;59391;52.504;13.438;2023-06-22T09:16:22;101559.00;;;32.00
71564;BMP180;59391;52.504;13.438;2023-06-22T09:19:23;101578.00;;;32.00
71564;BMP180;59391;52.504;13.438;2023-06-22T09:22:00;101533.00;;;32.20
71564;BMP180;59391;52.504;13.438;2023-06-22T09:24:45;101617.00;;;32.30
71564;BMP180;59391;52.504;13.438;2023-06-22T09:27:16;101532.00;;;32.40
71564;BMP180;59391;52.504;13.438;2023-06-22T09:29:45;101568.00;;;32.40
71564;BMP180;59391;52.504;13.438;2023-06-22T09:33:02;101603.00;;;32.50
71564;BMP180;59391;52.504;13.438;2023-06-22T09:35:52;101604.00;;;32.40
71564;BMP180;59391;52.504;13.438;2023-06-22T09:38:41;101622.00;;;32.60
71564;BMP180;59391;52.504;13.438;2023-06-22T09:41:33;101624.00;;;32.60
71564;BMP180;59391;52.504;13.438;2023-06-22T09:44:16;101562.00;;;32.80
71564;BMP180;59391;52.504;13.438;2023-06-22T09:47:10;101613.00;;;32.80
71564;BMP180;59391;52.504;13.438;2023-06-22T09:50:22;101547.00;;;32.80
71564;BMP180;59391;52.504;13.438;2023-06-22T09:53:00;101566.00;;;32.80
71564;BMP180;59391;52.504;13.438;2023-06-22T09:55:34;101538.00;;;32.90
71564;BMP180;59391;52.504;13.438;2023-06-22T09:58:10;101517.00;;;32.90
71564;BMP180;59391;52.504;13.438;2023-06-22T10:00:58;101620.00;;;33.00
71564;BMP180;59391;52.504;13.438;2023-06-22T10:04:03;101553.00;;;33.10
71564;BMP180;59391;52.504;13.438;2023-06-22T10:07:02;101599.00;;;33.20
71564;BMP180;59391;52.504;13.438;2023-06-22T10:09:28;101623.00;;;33.20
71564;BMP180;59391;52.504;13.438;2023-06-22T10:12:01;101584.00;;;33.30
71564;BMP180;59391;52.504;13.438;2023-06-22T10:14:27;101592.00;;;33.50
71564;BMP180;59391;52.504;13.438;2023-06-22T10:17:02;101624.00;;;33.70
71564;BMP180;59391;52.504;13.438;2023-06-22T10:19:42;101551.00;;;33.80
71564;BMP180;59391;52.504;13.438;2023-06-22T10:22:08;101539.00;;;34.10
71564;BMP180;59391;52.504;13.438;2023-06-22T10:24:36;101595.00;;;34.20
71564;BMP180;59391;52.504;13.438;2023-06-22T10:27:04;101592.00;;;34.30
71564;BMP180;59391;52.504;13.438;2023-06-22T10:29:29;101595.00;;;34.50
71564;BMP180;59391;52.504;13.438;2023-06-22T10:31:55;101583.00;;;34.80
71564;BMP180;59391;52.504;13.438;2023-06-22T10:34:21;101582.00;;;35.00
71564;BMP180;59391;52.504;13.438;2023-06-22T10:36:46;101575.00;;;35.10
71564;BMP180;59391;52.504;13.438;2023-06-22T10:39:14;101570.00;;;35.30
71564;BMP180;59391;52.504;13.438;2023-06-22T10:41:40;101575.00;;;35.20
71564;BMP180;59391;52.504;13.438;2023-06-22T10:44:06;101572.00;;;35.30
71564;BMP180;59391;52.504;13.438;2023-06-22T10:46:31;101570.00;;;35.40
71564;BMP180;59391;52.504;13.438;2023-06-22T10:48:57;101567.00;;;35.60
71564;BMP180;59391;52.504;13.438;2023-06-22T10:51:24;101566.00;;;35.90
71564;BMP180;59391;52.504;13.438;2023-06-22T10:53:51;101560.00;;;36.20
71564;BMP180;59391;52.504;13.438;2023-06-22T10:56:17;101560.00;;;36.50
71564;BMP180;59391;52.504;13.438;2023-06-22T10:58:45;101559.00;;;36.70
71564;BMP180;59391;52.504;13.438;2023-06-22T11:01:11;101562.00;;;36.80
71564;BMP180;59391;52.504;13.438;2023-06-22T11:03:36;101553.00;;;36.90
71564;BMP180;59391;52.504;13.438;2023-06-22T11:06:02;101551.00;;;37.00
71564;BMP180;59391;52.504;13.438;2023-06-22T11:08:28;101545.00;;;37.00
71564;BMP180;59391;52.504;13.438;2023-06-22T11:10:53;101535.00;;;37.10
71564;BMP180;59391;52.504;13.438;2023-06-22T11:13:19;101541.00;;;37.30
71564;BMP180;59391;52.504;13.438;2023-06-22T11:15:45;101542.00;;;37.30
71564;BMP180;59391;52.504;13.438;2023-06-22T11:18:10;101553.00;;;37.20
71564;BMP180;59391;52.504;13.438;2023-06-22T11:20:36;101541.00;;;37.10
71564;BMP180;59391;52.504;13.438;2023-06-22T11:23:05;101539.00;;;37.00
71564;BMP180;59391;52.504;13.438;2023-06-22T11:25:31;101528.00;;;36.90
71564;BMP180;59391;52.504;13.438;2023-06-22T11:27:57;101525.00;;;36.80
71564;BMP180;59391;52.504;13.438;2023-06-22T11:30:23;101527.00;;;36.80
71564;BMP180;59391;52.504;13.438;2023-06-22T11:32:48;101522.00;;;36.90
71564;BMP180;59391;52.504;13.438;2023-06-22T11:35:14;101519.00;;;36.90
71564;BMP180;59391;52.504;13.438;2023-06-22T11:37:40;101521.00;;;36.80
71564;BMP180;59391;52.504;13.438;2023-06-22T11:40:06;101513.00;;;36.90
71564;BMP180;59391;52.504;13.438;2023-06-22T11:42:34;101514.00;;;37.00
71564;BMP180;59391;52.504;13.438;2023-06-22T11:45:00;101522.00;;;37.20
71564;BMP180;59391;52.504;13.438;2023-06-22T11:47:27;101520.00;;;37.40
71564;BMP180;59391;52.504;13.438;2023-06-22T11:49:52;101522.00;;;37.60
71564;BMP180;59391;52.504;13.438;2023-06-22T11:52:18;101521.00;;;37.70
71564;BMP180;59391;52.504;13.438;2023-06-22T11:54:44;101527.00;;;37.90
71564;BMP180;59391;52.504;13.438;2023-06-22T11:57:11;101537.00;;;38.10
71564;BMP180;59391;52.504;13.438;2023-06-22T11:59:36;101535.00;;;38.30
71564;BMP180;59391;52.504;13.438;2023-06-22T12:02:02;101529.00;;;38.40
71564;BMP180;59391;52.504;13.438;2023-06-22T12:04:29;101540.00;;;38.60
71564;BMP180;59391;52.504;13.438;2023-06-22T12:06:55;101536.00;;;38.70
71564;BMP180;59391;52.504;13.438;2023-06-22T12:09:20;101525.00;;;38.80
71564;BMP180;59391;52.504;13.438;2023-06-22T12:11:46;101524.00;;;38.80
71564;BMP180;59391;52.504;13.438;2023-06-22T12:14:12;101525.00;;;38.60
71564;BMP180;59391;52.504;13.438;2023-06-22T12:16:37;101508.00;;;38.30
71564;BMP180;59391;52.504;13.438;2023-06-22T12:19:03;101508.00;;;38.20
71564;BMP180;59391;52.504;13.438;2023-06-22T12:21:29;101513.00;;;38.10
71564;BMP180;59391;52.504;13.438;2023-06-22T12:23:54;101511.00;;;38.00
71564;BMP180;59391;52.504;13.438;2023-06-22T12:26:20;101503.00;;;38.00
71564;BMP180;59391;52.504;13.438;2023-06-22T12:28:47;101498.00;;;37.90
71564;BMP180;59391;52.504;13.438;2023-06-22T12:31:14;101493.00;;;37.90
71564;BMP180;59391;52.504;13.438;2023-06-22T12:33:39;101483.00;;;37.80
71564;BMP180;59391;52.504;13.438;2023-06-22T12:36:05;101474.00;;;37.70
71564;BMP180;59391;52.504;13.438;2023-06-22T12:38:31;101486.00;;;37.70
71564;BMP180;59391;52.504;13.438;2023-06-22T12:40:56;101485.00;;;38.00
71564;BMP180;59391;52.504;13.438;2023-06-22T12:43:22;101475.00;;;38.20
71564;BMP180;59391;52.504;13.438;2023-06-22T12:45:48;101481.00;;;38.10
71564;BMP180;59391;52.504;13.438;2023-06-22T12:48:13;101482.00;;;38.00
71564;BMP180;59391;52.504;13.438;2023-06-22T12:50:39;101485.00;;;38.00
71564;BMP180;59391;52.504;13.438;2023-06-22T12:53:05;101476.00;;;38.00
71564;BMP180;59391;52.504;13.438;2023-06-22T12:55:31;101457.00;;;38.00
71564;BMP180;59391;52.504;13.438;2023-06-22T12:57:57;101452.00;;;37.90
71564;BMP180;59391;52.504;13.438;2023-06-22T13:00:23;101458.00;;;37.90
71564;BMP180;59391;52.504;13.438;2023-06-22T13:02:49;101451.00;;;37.80
71564;BMP180;59391;52.504;13.438;2023-06-22T13:05:14;101446.00;;;37.70
71564;BMP180;59391;52.504;13.438;2023-06-22T13:07:40;101450.00;;;37.60
71564;BMP180;59391;52.504;13.438;2023-06-22T13:10:08;101441.00;;;37.60
71564;BMP180;59391;52.504;13.438;2023-06-22T13:12:34;101460.00;;;37.50
71564;BMP180;59391;52.504;13.438;2023-06-22T13:15:00;101457.00;;;37.40
71564;BMP180;59391;52.504;13.438;2023-06-22T13:17:25;101441.00;;;37.20
71564;BMP180;59391;52.504;13.438;2023-06-22T13:19:54;101443.00;;;37.10
71564;BMP180;59391;52.504;13.438;2023-06-22T13:22:33;101430.00;;;37.00
71564;BMP180;59391;52.504;13.438;2023-06-22T13:25:06;101427.00;;;37.00
71564;BMP180;59391;52.504;13.438;2023-06-22T13:27:32;101422.00;;;36.90
71564;BMP180;59391;52.504;13.438;2023-06-22T13:29:57;101428.00;;;36.80
71564;BMP180;59391;52.504;13.438;2023-06-22T13:32:23;101422.00;;;36.70
71564;BMP180;59391;52.504;13.438;2023-06-22T13:34:49;101428.00;;;36.60
71564;BMP180;59391;52.504;13.438;2023-06-22T13:37:14;101421.00;;;36.50
71564;BMP180;59391;52.504;13.438;2023-06-22T13:39:40;101419.00;;;36.40
71564;BMP180;59391;52.504;13.438;2023-06-22T13:42:06;101411.00;;;36.40
71564;BMP180;59391;52.504;13.438;2023-06-22T13:44:32;101411.00;;;36.30
71564;BMP180;59391;52.504;13.438;2023-06-22T13:46:58;101402.00;;;36.20
71564;BMP180;59391;52.504;13.438;2023-06-22T13:49:24;101404.00;;;36.10
71564;BMP180;59391;52.504;13.438;2023-06-22T13:51:50;101400.00;;;36.00
71564;BMP180;59391;52.504;13.438;2023-06-22T13:54:16;101399.00;;;36.00
71564;BMP180;59391;52.504;13.438;2023-06-22T13:56:42;101391.00;;;35.90
71564;BMP180;59391;52.504;13.438;2023-06-22T13:59:08;101391.00;;;35.90
71564;BMP180;59391;52.504;13.438;2023-06-22T14:01:36;101386.00;;;35.80
71564;BMP180;59391;52.504;13.438;2023-06-22T14:04:02;101370.00;;;35.80
71564;BMP180;59391;52.504;13.438;2023-06-22T14:06:28;101364.00;;;35.70
71564;BMP180;59391;52.504;13.438;2023-06-22T14:08:53;101358.00;;;35.60
71564;BMP180;59391;52.504;13.438;2023-06-22T14:11:19;101341.00;;;35.60
71564;BMP180;59391;52.504;13.438;2023-06-22T14:13:44;101344.00;;;35.60
71564;BMP180;59391;52.504;13.438;2023-06-22T14:16:10;101352.00;;;35.50
71564;BMP180;59391;52.504;13.438;2023-06-22T14:18:36;101343.00;;;35.50
71564;BMP180;59391;52.504;13.438;2023-06-22T14:21:02;101341.00;;;35.40
71564;BMP180;59391;52.504;13.438;2023-06-22T14:23:27;101340.00;;;35.30
71564;BMP180;59391;52.504;13.438;2023-06-22T14:25:53;101339.00;;;35.20
71564;BMP180;59391;52.504;13.438;2023-06-22T14:28:19;101340.00;;;35.10
71564;BMP180;59391;52.504;13.438;2023-06-22T14:30:44;101339.00;;;35.10
71564;BMP180;59391;52.504;13.438;2023-06-22T14:33:13;101322.00;;;35.20
71564;BMP180;59391;52.504;13.438;2023-06-22T14:35:38;101329.00;;;35.30
71564;BMP180;59391;52.504;13.438;2023-06-22T14:38:04;101339.00;;;35.30
71564;BMP180;59391;52.504;13.438;2023-06-22T14:40:30;101323.00;;;35.40
71564;BMP180;59391;52.504;13.438;2023-06-22T14:42:55;101332.00;;;35.50
71564;BMP180;59391;52.504;13.438;2023-06-22T14:45:23;101324.00;;;35.50
71564;BMP180;59391;52.504;13.438;2023-06-22T14:47:49;101317.00;;;35.50
71564;BMP180;59391;52.504;13.438;2023-06-22T14:50:15;101309.00;;;35.50
71564;BMP180;59391;52.504;13.438;2023-06-22T14:52:41;101309.00;;;35.40
71564;BMP180;59391;52.504;13.438;2023-06-22T14:55:07;101293.00;;;35.40
71564;BMP180;59391;52.504;13.438;2023-06-22T14:57:33;101289.00;;;35.40
71564;BMP180;59391;52.504;13.438;2023-06-22T14:59:59;101280.00;;;35.30
71564;BMP180;59391;52.504;13.438;2023-06-22T15:02:27;101282.00;;;35.20
71564;BMP180;59391;52.504;13.438;2023-06-22T15:04:52;101279.00;;;35.10
71564;BMP180;59391;52.504;13.438;2023-06-22T15:07:18;101274.00;;;35.10
71564;BMP180;59391;52.504;13.438;2023-06-22T15:09:46;101255.00;;;35.00
71564;BMP180;59391;52.504;13.438;2023-06-22T15:12:12;101263.00;;;35.10
71564;BMP180;59391;52.504;13.438;2023-06-22T15:14:40;101260.00;;;35.10
71564;BMP180;59391;52.504;13.438;2023-06-22T15:17:07;101254.00;;;35.10
71564;BMP180;59391;52.504;13.438;2023-06-22T15:19:37;101251.00;;;35.10
71564;BMP180;59391;52.504;13.438;2023-06-22T15:22:07;101263.00;;;35.00
71564;BMP180;59391;52.504;13.438;2023-06-22T15:24:33;101273.00;;;35.00
71564;BMP180;59391;52.504;13.438;2023-06-22T15:26:59;101281.00;;;35.00
71564;BMP180;59391;52.504;13.438;2023-06-22T15:29:26;101261.00;;;35.00
71564;BMP180;59391;52.504;13.438;2023-06-22T15:31:52;101261.00;;;35.10
71564;BMP180;59391;52.504;13.438;2023-06-22T15:34:18;101247.00;;;35.20
71564;BMP180;59391;52.504;13.438;2023-06-22T15:36:44;101241.00;;;35.20
71564;BMP180;59391;52.504;13.438;2023-06-22T15:39:10;101242.00;;;35.10
71564;BMP180;59391;52.504;13.438;2023-06-22T15:41:39;101241.00;;;35.00
71564;BMP180;59391;52.504;13.438;2023-06-22T15:44:05;101228.00;;;35.00
71564;BMP180;59391;52.504;13.438;2023-06-22T15:46:30;101241.00;;;35.00
71564;BMP180;59391;52.504;13.438;2023-06-22T15:48:56;101232.00;;;35.10
71564;BMP180;59391;52.504;13.438;2023-06-22T15:51:21;101220.00;;;35.10
71564;BMP180;59391;52.504;13.438;2023-06-22T15:53:47;101213.00;;;35.10
71564;BMP180;59391;52.504;13.438;2023-06-22T15:56:13;101219.00;;;35.00